Alameda, New Mexico
Current Conditions -  °F | °C
As of 10:49 AM on Tuesday 21 Oct 2014 (Local Time) from KAEG Reporting Station
Broken Clouds Broken Clouds  
Wind Chill: 57°   Ceiling: 12000
Heat Index: 57°   Visibility: 10mi
Dew Point: 46°   Wind: 0mph
Humidity: 67%   Direction: NA
Pressure: 30.19"   Gusts: NA
Location:  35.1991°N, 106.662°W
Report Text: KAEG 211649Z 00000KT 10SM FEW026 SCT040 BKN120 14/08 A3019
Loading
Personal Weather Stations






























Interactive Weather Map New forecast layout! Learn more

10-Day Weather Forecast

Advertisements
Track Severe Weather on mobile